sensor_id;sensor_type;location;lat;lon;timestamp;pressure;altitude;pressure_sealevel;temperature;humidity
65013;BME280;51715;39.432;-77.518;2022-12-29T00:00:39;100549.45;;;5.21;33.47
65013;BME280;51715;39.432;-77.518;2022-12-29T00:03:07;100550.41;;;5.15;33.48
65013;BME280;51715;39.432;-77.518;2022-12-29T00:05:35;100552.91;;;5.13;33.34
65013;BME280;51715;39.432;-77.518;2022-12-29T00:08:04;100549.15;;;4.89;33.24
65013;BME280;51715;39.432;-77.518;2022-12-29T00:10:33;100548.17;;;4.96;33.75
65013;BME280;51715;39.432;-77.518;2022-12-29T00:13:07;100547.37;;;5.10;33.97
65013;BME280;51715;39.432;-77.518;2022-12-29T00:15:37;100544.30;;;4.74;34.50
65013;BME280;51715;39.432;-77.518;2022-12-29T00:18:06;100545.49;;;4.41;35.15
65013;BME280;51715;39.432;-77.518;2022-12-29T00:20:35;100545.12;;;4.26;35.05
65013;BME280;51715;39.432;-77.518;2022-12-29T00:23:10;100541.03;;;4.21;34.78
65013;BME280;51715;39.432;-77.518;2022-12-29T00:25:38;100539.19;;;4.83;34.60
65013;BME280;51715;39.432;-77.518;2022-12-29T00:28:08;100536.50;;;4.71;34.31
65013;BME280;51715;39.432;-77.518;2022-12-29T00:30:38;100535.78;;;4.75;34.28
65013;BME280;51715;39.432;-77.518;2022-12-29T00:33:13;100534.65;;;4.73;34.64
65013;BME280;51715;39.432;-77.518;2022-12-29T00:35:45;100532.25;;;4.43;34.73
65013;BME280;51715;39.432;-77.518;2022-12-29T00:38:15;100526.87;;;4.48;34.61
65013;BME280;51715;39.432;-77.518;2022-12-29T00:40:43;100526.44;;;4.55;34.35
65013;BME280;51715;39.432;-77.518;2022-12-29T00:43:12;100526.91;;;4.56;34.19
65013;BME280;51715;39.432;-77.518;2022-12-29T00:45:41;100527.86;;;4.58;34.05
65013;BME280;51715;39.432;-77.518;2022-12-29T00:48:09;100527.47;;;4.53;34.43
65013;BME280;51715;39.432;-77.518;2022-12-29T00:50:37;100521.76;;;4.49;34.57
65013;BME280;51715;39.432;-77.518;2022-12-29T00:53:06;100522.37;;;4.22;34.65
65013;BME280;51715;39.432;-77.518;2022-12-29T00:55:37;100524.27;;;4.49;34.63
65013;BME280;51715;39.432;-77.518;2022-12-29T00:58:06;100526.12;;;4.58;34.14
65013;BME280;51715;39.432;-77.518;2022-12-29T01:00:33;100525.72;;;4.64;33.95
65013;BME280;51715;39.432;-77.518;2022-12-29T01:03:04;100526.08;;;4.67;33.86
65013;BME280;51715;39.432;-77.518;2022-12-29T01:05:36;100522.26;;;4.68;33.65
65013;BME280;51715;39.432;-77.518;2022-12-29T01:08:05;100520.00;;;4.70;33.56
65013;BME280;51715;39.432;-77.518;2022-12-29T01:10:35;100517.13;;;4.98;33.62
65013;BME280;51715;39.432;-77.518;2022-12-29T01:13:04;100519.40;;;4.63;33.61
65013;BME280;51715;39.432;-77.518;2022-12-29T01:15:33;100520.92;;;4.53;33.88
65013;BME280;51715;39.432;-77.518;2022-12-29T01:18:02;100524.94;;;4.47;33.89
65013;BME280;51715;39.432;-77.518;2022-12-29T01:20:31;100527.28;;;4.42;34.04
65013;BME280;51715;39.432;-77.518;2022-12-29T01:22:59;100522.74;;;4.35;34.02
65013;BME280;51715;39.432;-77.518;2022-12-29T01:25:27;100517.92;;;4.20;35.26
65013;BME280;51715;39.432;-77.518;2022-12-29T01:27:55;100513.67;;;4.18;35.39
65013;BME280;51715;39.432;-77.518;2022-12-29T01:30:25;100510.10;;;4.23;35.37
65013;BME280;51715;39.432;-77.518;2022-12-29T01:32:53;100507.67;;;4.28;35.14
65013;BME280;51715;39.432;-77.518;2022-12-29T01:35:21;100506.40;;;4.08;34.73
65013;BME280;51715;39.432;-77.518;2022-12-29T01:37:50;100506.93;;;4.39;34.71
65013;BME280;51715;39.432;-77.518;2022-12-29T01:40:19;100508.77;;;4.16;34.63
65013;BME280;51715;39.432;-77.518;2022-12-29T01:42:47;100507.58;;;4.21;34.48
65013;BME280;51715;39.432;-77.518;2022-12-29T01:45:16;100507.32;;;4.50;34.60
65013;BME280;51715;39.432;-77.518;2022-12-29T01:47:47;100503.13;;;4.51;34.56
65013;BME280;51715;39.432;-77.518;2022-12-29T01:50:20;100499.37;;;4.48;34.72
65013;BME280;51715;39.432;-77.518;2022-12-29T01:52:55;100500.39;;;4.50;34.68
65013;BME280;51715;39.432;-77.518;2022-12-29T01:55:28;100499.18;;;4.22;34.74
65013;BME280;51715;39.432;-77.518;2022-12-29T01:58:01;100499.05;;;4.52;34.49
65013;BME280;51715;39.432;-77.518;2022-12-29T02:00:33;100496.96;;;4.25;34.34
65013;BME280;51715;39.432;-77.518;2022-12-29T02:03:01;100500.69;;;4.53;34.31
65013;BME280;51715;39.432;-77.518;2022-12-29T02:05:36;100499.40;;;4.53;34.45
65013;BME280;51715;39.432;-77.518;2022-12-29T02:08:07;100497.26;;;4.24;34.70
65013;BME280;51715;39.432;-77.518;2022-12-29T02:10:36;100501.01;;;4.11;34.96
65013;BME280;51715;39.432;-77.518;2022-12-29T02:13:06;100501.46;;;4.23;35.23
65013;BME280;51715;39.432;-77.518;2022-12-29T02:15:47;100498.88;;;4.10;35.49
65013;BME280;51715;39.432;-77.518;2022-12-29T02:18:26;100498.06;;;4.17;35.29
65013;BME280;51715;39.432;-77.518;2022-12-29T02:21:19;100497.61;;;4.21;35.10
65013;BME280;51715;39.432;-77.518;2022-12-29T02:25:14;100497.88;;;4.30;35.03
65013;BME280;51715;39.432;-77.518;2022-12-29T02:27:55;100495.88;;;4.36;34.63
65013;BME280;51715;39.432;-77.518;2022-12-29T02:31:06;100495.97;;;4.35;34.70
65013;BME280;51715;39.432;-77.518;2022-12-29T02:33:49;100494.08;;;4.06;34.66
65013;BME280;51715;39.432;-77.518;2022-12-29T02:36:27;100494.87;;;4.30;34.73
65013;BME280;51715;39.432;-77.518;2022-12-29T02:39:04;100491.01;;;3.85;35.72
65013;BME280;51715;39.432;-77.518;2022-12-29T02:41:42;100483.44;;;3.86;35.81
65013;BME280;51715;39.432;-77.518;2022-12-29T02:44:18;100483.94;;;3.44;36.64
65013;BME280;51715;39.432;-77.518;2022-12-29T02:46:54;100488.60;;;3.76;36.08
65013;BME280;51715;39.432;-77.518;2022-12-29T02:49:33;100489.94;;;3.93;36.00
65013;BME280;51715;39.432;-77.518;2022-12-29T02:52:09;100493.29;;;3.88;36.02
65013;BME280;51715;39.432;-77.518;2022-12-29T02:54:40;100488.34;;;3.91;36.03
65013;BME280;51715;39.432;-77.518;2022-12-29T02:57:12;100486.05;;;3.94;36.02
65013;BME280;51715;39.432;-77.518;2022-12-29T02:59:41;100494.79;;;3.69;36.44
65013;BME280;51715;39.432;-77.518;2022-12-29T03:02:30;100494.11;;;3.85;36.28
65013;BME280;51715;39.432;-77.518;2022-12-29T03:05:18;100492.38;;;3.76;36.48
65013;BME280;51715;39.432;-77.518;2022-12-29T03:07:52;100491.82;;;3.85;36.45
65013;BME280;51715;39.432;-77.518;2022-12-29T03:10:35;100490.66;;;3.89;36.42
65013;BME280;51715;39.432;-77.518;2022-12-29T03:13:12;100493.65;;;4.01;36.04
65013;BME280;51715;39.432;-77.518;2022-12-29T03:15:46;100488.33;;;4.04;35.88
65013;BME280;51715;39.432;-77.518;2022-12-29T03:18:23;100488.61;;;4.11;35.93
65013;BME280;51715;39.432;-77.518;2022-12-29T03:20:57;100490.26;;;4.05;36.22
65013;BME280;51715;39.432;-77.518;2022-12-29T03:23:30;100485.97;;;3.66;36.77
65013;BME280;51715;39.432;-77.518;2022-12-29T03:26:03;100480.41;;;3.82;36.58
65013;BME280;51715;39.432;-77.518;2022-12-29T03:28:37;100487.12;;;3.94;36.46
65013;BME280;51715;39.432;-77.518;2022-12-29T03:31:08;100488.18;;;4.07;36.24
65013;BME280;51715;39.432;-77.518;2022-12-29T03:33:39;100489.10;;;4.03;36.44
65013;BME280;51715;39.432;-77.518;2022-12-29T03:36:14;100486.43;;;4.07;36.19
65013;BME280;51715;39.432;-77.518;2022-12-29T03:38:48;100486.69;;;4.11;36.16
65013;BME280;51715;39.432;-77.518;2022-12-29T03:41:24;100485.70;;;3.68;36.04
65013;BME280;51715;39.432;-77.518;2022-12-29T03:43:54;100484.00;;;4.22;35.85
65013;BME280;51715;39.432;-77.518;2022-12-29T03:46:23;100482.54;;;4.19;36.09
65013;BME280;51715;39.432;-77.518;2022-12-29T03:48:52;100483.34;;;4.11;36.23
65013;BME280;51715;39.432;-77.518;2022-12-29T03:51:20;100485.64;;;4.09;36.24
65013;BME280;51715;39.432;-77.518;2022-12-29T03:53:50;100485.07;;;4.05;36.31
65013;BME280;51715;39.432;-77.518;2022-12-29T03:56:18;100484.74;;;4.10;36.29
65013;BME280;51715;39.432;-77.518;2022-12-29T03:58:46;100485.50;;;3.89;36.15
65013;BME280;51715;39.432;-77.518;2022-12-29T04:01:14;100483.71;;;3.95;35.80
65013;BME280;51715;39.432;-77.518;2022-12-29T04:03:42;100482.90;;;4.23;35.90
65013;BME280;51715;39.432;-77.518;2022-12-29T04:06:11;100480.81;;;4.25;35.95
65013;BME280;51715;39.432;-77.518;2022-12-29T04:08:40;100481.85;;;3.97;35.88
65013;BME280;51715;39.432;-77.518;2022-12-29T04:11:07;100482.97;;;4.19;35.93
65013;BME280;51715;39.432;-77.518;2022-12-29T04:13:36;100481.68;;;4.16;35.98
65013;BME280;51715;39.432;-77.518;2022-12-29T04:16:05;100475.88;;;4.11;35.96
65013;BME280;51715;39.432;-77.518;2022-12-29T04:18:34;100473.08;;;3.95;36.41
65013;BME280;51715;39.432;-77.518;2022-12-29T04:21:03;100470.70;;;3.88;36.55
65013;BME280;51715;39.432;-77.518;2022-12-29T04:23:32;100464.99;;;4.05;36.55
65013;BME280;51715;39.432;-77.518;2022-12-29T04:26:01;100460.92;;;4.17;36.49
65013;BME280;51715;39.432;-77.518;2022-12-29T04:28:30;100457.78;;;3.90;36.71
65013;BME280;51715;39.432;-77.518;2022-12-29T04:30:58;100458.10;;;3.54;37.13
65013;BME280;51715;39.432;-77.518;2022-12-29T04:33:26;100455.94;;;3.87;37.28
65013;BME280;51715;39.432;-77.518;2022-12-29T04:35:55;100453.35;;;3.86;37.29
65013;BME280;51715;39.432;-77.518;2022-12-29T04:38:25;100447.33;;;3.57;36.91
65013;BME280;51715;39.432;-77.518;2022-12-29T04:40:53;100444.99;;;3.66;36.90
65013;BME280;51715;39.432;-77.518;2022-12-29T04:43:22;100439.26;;;3.76;36.72
65013;BME280;51715;39.432;-77.518;2022-12-29T04:45:51;100438.38;;;3.72;36.55
65013;BME280;51715;39.432;-77.518;2022-12-29T04:48:19;100435.03;;;3.78;36.34
65013;BME280;51715;39.432;-77.518;2022-12-29T04:50:48;100433.68;;;3.81;36.43
65013;BME280;51715;39.432;-77.518;2022-12-29T04:53:17;100429.45;;;3.82;36.36
65013;BME280;51715;39.432;-77.518;2022-12-29T04:55:50;100430.81;;;3.71;36.48
65013;BME280;51715;39.432;-77.518;2022-12-29T04:58:20;100430.90;;;3.92;36.54
65013;BME280;51715;39.432;-77.518;2022-12-29T05:03:57;100426.37;;;3.99;35.36
65013;BME280;51715;39.432;-77.518;2022-12-29T05:06:24;100429.31;;;3.90;35.13
65013;BME280;51715;39.432;-77.518;2022-12-29T05:08:52;100428.95;;;3.72;35.24
65013;BME280;51715;39.432;-77.518;2022-12-29T05:11:20;100429.25;;;4.07;35.39
65013;BME280;51715;39.432;-77.518;2022-12-29T05:13:48;100427.11;;;4.16;35.54
65013;BME280;51715;39.432;-77.518;2022-12-29T05:16:16;100424.93;;;3.94;35.78
65013;BME280;51715;39.432;-77.518;2022-12-29T05:18:45;100422.46;;;3.83;36.22
65013;BME280;51715;39.432;-77.518;2022-12-29T05:21:13;100419.27;;;3.59;36.58
65013;BME280;51715;39.432;-77.518;2022-12-29T05:23:42;100416.05;;;3.58;36.53
65013;BME280;51715;39.432;-77.518;2022-12-29T05:26:10;100417.19;;;3.56;36.64
65013;BME280;51715;39.432;-77.518;2022-12-29T05:28:38;100418.81;;;3.64;37.01
65013;BME280;51715;39.432;-77.518;2022-12-29T05:31:07;100418.63;;;3.59;37.11
65013;BME280;51715;39.432;-77.518;2022-12-29T05:33:35;100414.97;;;3.40;37.47
65013;BME280;51715;39.432;-77.518;2022-12-29T05:36:04;100412.99;;;3.33;37.51
65013;BME280;51715;39.432;-77.518;2022-12-29T05:38:33;100409.64;;;3.42;37.25
65013;BME280;51715;39.432;-77.518;2022-12-29T05:41:02;100408.25;;;3.01;37.93
65013;BME280;51715;39.432;-77.518;2022-12-29T05:43:31;100402.05;;;3.01;37.88
65013;BME280;51715;39.432;-77.518;2022-12-29T05:45:59;100401.59;;;2.97;38.18
65013;BME280;51715;39.432;-77.518;2022-12-29T05:48:27;100398.92;;;3.04;37.98
65013;BME280;51715;39.432;-77.518;2022-12-29T05:50:56;100398.71;;;3.09;37.72
65013;BME280;51715;39.432;-77.518;2022-12-29T05:53:24;100394.72;;;2.75;37.73
65013;BME280;51715;39.432;-77.518;2022-12-29T05:55:52;100392.43;;;3.02;37.87
65013;BME280;51715;39.432;-77.518;2022-12-29T05:58:20;100401.47;;;2.80;37.98
65013;BME280;51715;39.432;-77.518;2022-12-29T06:00:48;100399.91;;;3.13;37.73
65013;BME280;51715;39.432;-77.518;2022-12-29T06:03:16;100394.79;;;3.10;37.86
65013;BME280;51715;39.432;-77.518;2022-12-29T06:05:45;100396.23;;;2.52;38.68
65013;BME280;51715;39.432;-77.518;2022-12-29T06:08:13;100387.45;;;2.80;38.21
65013;BME280;51715;39.432;-77.518;2022-12-29T06:10:42;100384.48;;;2.38;39.20
65013;BME280;51715;39.432;-77.518;2022-12-29T06:13:11;100384.60;;;2.73;38.72
65013;BME280;51715;39.432;-77.518;2022-12-29T06:15:40;100380.82;;;2.56;39.21
65013;BME280;51715;39.432;-77.518;2022-12-29T06:18:08;100378.92;;;1.95;39.76
65013;BME280;51715;39.432;-77.518;2022-12-29T06:20:37;100377.98;;;2.14;39.60
65013;BME280;51715;39.432;-77.518;2022-12-29T06:23:05;100376.97;;;2.13;39.35
65013;BME280;51715;39.432;-77.518;2022-12-29T06:25:33;100370.93;;;2.38;38.85
65013;BME280;51715;39.432;-77.518;2022-12-29T06:28:01;100372.90;;;2.58;38.99
65013;BME280;51715;39.432;-77.518;2022-12-29T06:30:31;100378.54;;;2.54;38.75
65013;BME280;51715;39.432;-77.518;2022-12-29T06:33:00;100378.89;;;2.61;38.65
65013;BME280;51715;39.432;-77.518;2022-12-29T06:35:28;100383.55;;;2.69;38.50
65013;BME280;51715;39.432;-77.518;2022-12-29T06:37:56;100391.01;;;3.05;38.14
65013;BME280;51715;39.432;-77.518;2022-12-29T06:40:24;100392.81;;;2.84;38.15
65013;BME280;51715;39.432;-77.518;2022-12-29T06:42:52;100391.06;;;3.11;37.89
65013;BME280;51715;39.432;-77.518;2022-12-29T06:45:21;100394.84;;;2.90;37.90
65013;BME280;51715;39.432;-77.518;2022-12-29T06:47:49;100390.45;;;2.95;37.71
65013;BME280;51715;39.432;-77.518;2022-12-29T06:50:18;100395.89;;;3.00;37.51
65013;BME280;51715;39.432;-77.518;2022-12-29T06:52:47;100402.64;;;3.04;37.58
65013;BME280;51715;39.432;-77.518;2022-12-29T06:55:16;100398.92;;;3.13;37.86
65013;BME280;51715;39.432;-77.518;2022-12-29T06:57:44;100404.45;;;2.83;37.79
65013;BME280;51715;39.432;-77.518;2022-12-29T07:00:14;100408.37;;;3.14;37.68
65013;BME280;51715;39.432;-77.518;2022-12-29T07:02:42;100412.38;;;3.01;37.50
65013;BME280;51715;39.432;-77.518;2022-12-29T07:05:10;100411.30;;;3.10;37.17
65013;BME280;51715;39.432;-77.518;2022-12-29T07:07:38;100408.51;;;2.94;37.49
65013;BME280;51715;39.432;-77.518;2022-12-29T07:10:07;100412.58;;;3.26;37.40
65013;BME280;51715;39.432;-77.518;2022-12-29T07:12:36;100414.21;;;2.89;37.96
65013;BME280;51715;39.432;-77.518;2022-12-29T07:15:04;100413.89;;;2.82;37.57
65013;BME280;51715;39.432;-77.518;2022-12-29T07:17:32;100414.22;;;2.86;37.54
65013;BME280;51715;39.432;-77.518;2022-12-29T07:20:01;100411.40;;;2.72;37.77
65013;BME280;51715;39.432;-77.518;2022-12-29T07:22:29;100418.89;;;2.59;38.02
65013;BME280;51715;39.432;-77.518;2022-12-29T07:24:57;100421.13;;;2.66;38.05
65013;BME280;51715;39.432;-77.518;2022-12-29T07:27:26;100423.47;;;2.66;37.87
65013;BME280;51715;39.432;-77.518;2022-12-29T07:29:54;100424.79;;;2.86;37.72
65013;BME280;51715;39.432;-77.518;2022-12-29T07:32:22;100428.78;;;2.62;37.83
65013;BME280;51715;39.432;-77.518;2022-12-29T07:34:51;100428.68;;;2.82;37.80
65013;BME280;51715;39.432;-77.518;2022-12-29T07:37:20;100428.62;;;2.78;38.15
65013;BME280;51715;39.432;-77.518;2022-12-29T07:39:47;100431.30;;;2.33;38.17
65013;BME280;51715;39.432;-77.518;2022-12-29T07:42:15;100429.07;;;2.30;38.19
65013;BME280;51715;39.432;-77.518;2022-12-29T07:44:43;100433.17;;;2.37;38.07
65013;BME280;51715;39.432;-77.518;2022-12-29T07:47:12;100441.36;;;2.40;37.98
65013;BME280;51715;39.432;-77.518;2022-12-29T07:49:40;100442.36;;;2.42;38.12
65013;BME280;51715;39.432;-77.518;2022-12-29T07:52:08;100441.80;;;2.51;38.29
65013;BME280;51715;39.432;-77.518;2022-12-29T07:54:37;100439.80;;;2.55;38.17
65013;BME280;51715;39.432;-77.518;2022-12-29T07:57:06;100443.86;;;2.61;37.91
65013;BME280;51715;39.432;-77.518;2022-12-29T07:59:35;100443.99;;;2.36;38.55
65013;BME280;51715;39.432;-77.518;2022-12-29T08:02:03;100441.02;;;2.36;38.24
65013;BME280;51715;39.432;-77.518;2022-12-29T08:04:31;100448.45;;;1.92;38.39
65013;BME280;51715;39.432;-77.518;2022-12-29T08:06:59;100448.04;;;2.47;38.13
65013;BME280;51715;39.432;-77.518;2022-12-29T08:09:28;100454.81;;;2.03;38.85
65013;BME280;51715;39.432;-77.518;2022-12-29T08:11:56;100456.42;;;2.39;38.75
65013;BME280;51715;39.432;-77.518;2022-12-29T08:14:24;100454.96;;;2.25;39.03
65013;BME280;51715;39.432;-77.518;2022-12-29T08:16:53;100458.80;;;2.37;38.70
65013;BME280;51715;39.432;-77.518;2022-12-29T08:19:21;100459.60;;;2.40;38.56
65013;BME280;51715;39.432;-77.518;2022-12-29T08:21:50;100457.70;;;1.93;39.00
65013;BME280;51715;39.432;-77.518;2022-12-29T08:24:18;100455.94;;;1.86;38.77
65013;BME280;51715;39.432;-77.518;2022-12-29T08:26:46;100458.61;;;2.41;38.63
65013;BME280;51715;39.432;-77.518;2022-12-29T08:29:15;100462.15;;;2.43;38.41
65013;BME280;51715;39.432;-77.518;2022-12-29T08:31:43;100457.66;;;2.46;38.45
65013;BME280;51715;39.432;-77.518;2022-12-29T08:34:11;100460.92;;;2.32;38.10
65013;BME280;51715;39.432;-77.518;2022-12-29T08:36:39;100459.29;;;2.14;38.27
65013;BME280;51715;39.432;-77.518;2022-12-29T08:39:08;100458.07;;;2.39;38.26
65013;BME280;51715;39.432;-77.518;2022-12-29T08:41:36;100465.19;;;2.47;38.04
65013;BME280;51715;39.432;-77.518;2022-12-29T08:44:04;100460.30;;;2.35;38.08
65013;BME280;51715;39.432;-77.518;2022-12-29T08:46:33;100465.78;;;2.36;37.90
65013;BME280;51715;39.432;-77.518;2022-12-29T08:49:01;100467.29;;;2.32;37.84
65013;BME280;51715;39.432;-77.518;2022-12-29T08:51:30;100464.74;;;2.17;38.22
65013;BME280;51715;39.432;-77.518;2022-12-29T08:53:58;100459.54;;;1.97;38.56
65013;BME280;51715;39.432;-77.518;2022-12-29T08:56:27;100456.92;;;1.94;38.67
65013;BME280;51715;39.432;-77.518;2022-12-29T08:58:55;100462.53;;;1.94;38.79
65013;BME280;51715;39.432;-77.518;2022-12-29T09:01:23;100460.82;;;1.79;38.74
65013;BME280;51715;39.432;-77.518;2022-12-29T09:03:53;100461.45;;;2.11;38.48
65013;BME280;51715;39.432;-77.518;2022-12-29T09:06:21;100461.62;;;2.13;38.41
65013;BME280;51715;39.432;-77.518;2022-12-29T09:08:49;100456.05;;;1.94;38.59
65013;BME280;51715;39.432;-77.518;2022-12-29T09:11:20;100450.50;;;1.95;38.54
65013;BME280;51715;39.432;-77.518;2022-12-29T09:13:49;100446.67;;;1.93;38.49
65013;BME280;51715;39.432;-77.518;2022-12-29T09:16:19;100445.29;;;1.92;38.55
65013;BME280;51715;39.432;-77.518;2022-12-29T09:18:48;100449.48;;;1.97;38.60
65013;BME280;51715;39.432;-77.518;2022-12-29T09:21:17;100449.56;;;2.00;38.69
65013;BME280;51715;39.432;-77.518;2022-12-29T09:23:45;100447.51;;;1.72;39.20
65013;BME280;51715;39.432;-77.518;2022-12-29T09:26:13;100443.19;;;1.85;39.01
65013;BME280;51715;39.432;-77.518;2022-12-29T09:28:42;100444.62;;;1.97;38.79
65013;BME280;51715;39.432;-77.518;2022-12-29T09:31:10;100447.36;;;1.85;39.09
65013;BME280;51715;39.432;-77.518;2022-12-29T09:33:38;100445.71;;;1.86;39.01
65013;BME280;51715;39.432;-77.518;2022-12-29T09:36:08;100450.30;;;1.88;38.69
65013;BME280;51715;39.432;-77.518;2022-12-29T09:38:36;100453.19;;;2.25;38.41
65013;BME280;51715;39.432;-77.518;2022-12-29T09:41:11;100450.54;;;2.23;38.37
65013;BME280;51715;39.432;-77.518;2022-12-29T09:43:56;100455.23;;;2.23;38.07
65013;BME280;51715;39.432;-77.518;2022-12-29T09:46:28;100456.45;;;1.99;37.93
65013;BME280;51715;39.432;-77.518;2022-12-29T09:49:05;100457.45;;;2.21;37.86
65013;BME280;51715;39.432;-77.518;2022-12-29T09:51:38;100457.93;;;2.14;37.99
65013;BME280;51715;39.432;-77.518;2022-12-29T09:54:24;100460.21;;;1.79;38.64
65013;BME280;51715;39.432;-77.518;2022-12-29T09:57:01;100465.35;;;1.83;38.74
65013;BME280;51715;39.432;-77.518;2022-12-29T09:59:38;100469.07;;;1.64;38.64
65013;BME280;51715;39.432;-77.518;2022-12-29T10:02:20;100469.69;;;1.76;38.19
65013;BME280;51715;39.432;-77.518;2022-12-29T10:04:51;100473.65;;;1.94;38.26
65013;BME280;51715;39.432;-77.518;2022-12-29T10:07:30;100467.48;;;1.94;38.37
65013;BME280;51715;39.432;-77.518;2022-12-29T10:10:10;100468.77;;;1.93;38.36
65013;BME280;51715;39.432;-77.518;2022-12-29T10:12:55;100469.89;;;1.94;38.30
65013;BME280;51715;39.432;-77.518;2022-12-29T10:15:39;100466.74;;;1.94;38.11
65013;BME280;51715;39.432;-77.518;2022-12-29T10:18:17;100466.82;;;2.03;38.13
65013;BME280;51715;39.432;-77.518;2022-12-29T10:20:54;100467.75;;;1.41;39.09
65013;BME280;51715;39.432;-77.518;2022-12-29T10:23:28;100466.50;;;1.54;38.80
65013;BME280;51715;39.432;-77.518;2022-12-29T10:25:58;100469.33;;;1.62;38.68
65013;BME280;51715;39.432;-77.518;2022-12-29T10:28:35;100475.31;;;1.44;38.48
65013;BME280;51715;39.432;-77.518;2022-12-29T10:31:10;100477.31;;;1.47;38.26
65013;BME280;51715;39.432;-77.518;2022-12-29T10:33:41;100480.99;;;1.48;37.96
65013;BME280;51715;39.432;-77.518;2022-12-29T10:36:15;100487.21;;;1.33;38.49
65013;BME280;51715;39.432;-77.518;2022-12-29T10:38:51;100483.06;;;1.24;39.69
65013;BME280;51715;39.432;-77.518;2022-12-29T10:41:25;100491.19;;;1.51;38.89
65013;BME280;51715;39.432;-77.518;2022-12-29T10:43:58;100485.49;;;1.22;39.14
65013;BME280;51715;39.432;-77.518;2022-12-29T10:46:30;100482.85;;;1.17;39.16
65013;BME280;51715;39.432;-77.518;2022-12-29T10:49:00;100481.76;;;1.18;39.40
65013;BME280;51715;39.432;-77.518;2022-12-29T10:51:32;100482.75;;;0.96;39.53
65013;BME280;51715;39.432;-77.518;2022-12-29T10:54:05;100483.72;;;1.01;39.60
65013;BME280;51715;39.432;-77.518;2022-12-29T10:56:42;100488.00;;;1.04;39.74
65013;BME280;51715;39.432;-77.518;2022-12-29T10:59:16;100486.56;;;0.75;40.78
65013;BME280;51715;39.432;-77.518;2022-12-29T11:01:54;100483.63;;;0.76;41.01
65013;BME280;51715;39.432;-77.518;2022-12-29T11:04:35;100489.88;;;1.05;40.52
65013;BME280;51715;39.432;-77.518;2022-12-29T11:07:07;100496.23;;;1.19;40.09
65013;BME280;51715;39.432;-77.518;2022-12-29T11:09:37;100502.64;;;1.32;39.76
65013;BME280;51715;39.432;-77.518;2022-12-29T11:12:21;100508.98;;;1.43;39.39
65013;BME280;51715;39.432;-77.518;2022-12-29T11:15:11;100511.82;;;0.98;39.03
65013;BME280;51715;39.432;-77.518;2022-12-29T11:17:45;100514.93;;;1.19;39.60
65013;BME280;51715;39.432;-77.518;2022-12-29T11:20:32;100518.68;;;1.35;39.45
65013;BME280;51715;39.432;-77.518;2022-12-29T11:23:01;100521.00;;;1.12;38.81
65013;BME280;51715;39.432;-77.518;2022-12-29T11:25:31;100524.37;;;1.23;38.45
65013;BME280;51715;39.432;-77.518;2022-12-29T11:28:02;100520.49;;;0.83;39.50
65013;BME280;51715;39.432;-77.518;2022-12-29T11:30:32;100523.70;;;0.82;40.17
65013;BME280;51715;39.432;-77.518;2022-12-29T11:33:03;100522.28;;;0.83;40.45
65013;BME280;51715;39.432;-77.518;2022-12-29T11:35:36;100519.12;;;0.99;40.03
65013;BME280;51715;39.432;-77.518;2022-12-29T11:38:07;100519.83;;;1.15;39.63
65013;BME280;51715;39.432;-77.518;2022-12-29T11:40:44;100522.01;;;0.93;39.47
65013;BME280;51715;39.432;-77.518;2022-12-29T11:43:21;100520.31;;;0.89;39.16
65013;BME280;51715;39.432;-77.518;2022-12-29T11:45:53;100541.94;;;1.17;39.25
65013;BME280;51715;39.432;-77.518;2022-12-29T11:48:22;100541.62;;;0.50;39.75
65013;BME280;51715;39.432;-77.518;2022-12-29T11:50:53;100540.81;;;0.74;39.78
65013;BME280;51715;39.432;-77.518;2022-12-29T11:53:25;100542.42;;;1.02;39.55
65013;BME280;51715;39.432;-77.518;2022-12-29T11:55:57;100546.53;;;0.68;39.97
65013;BME280;51715;39.432;-77.518;2022-12-29T11:58:30;100546.78;;;1.05;39.61
65013;BME280;51715;39.432;-77.518;2022-12-29T12:01:01;100549.64;;;0.93;39.41
65013;BME280;51715;39.432;-77.518;2022-12-29T12:03:34;100552.38;;;1.24;39.27
65013;BME280;51715;39.432;-77.518;2022-12-29T12:06:04;100559.69;;;1.05;39.18
65013;BME280;51715;39.432;-77.518;2022-12-29T12:08:38;100568.23;;;1.09;39.06
65013;BME280;51715;39.432;-77.518;2022-12-29T12:11:11;100569.30;;;1.04;38.79
65013;BME280;51715;39.432;-77.518;2022-12-29T12:13:45;100571.33;;;0.81;38.51
65013;BME280;51715;39.432;-77.518;2022-12-29T12:16:20;100572.43;;;0.99;38.86
65013;BME280;51715;39.432;-77.518;2022-12-29T12:18:51;100574.58;;;0.74;38.73
65013;BME280;51715;39.432;-77.518;2022-12-29T12:21:25;100576.22;;;1.21;38.29
65013;BME280;51715;39.432;-77.518;2022-12-29T12:24:15;100578.08;;;0.96;38.33
65013;BME280;51715;39.432;-77.518;2022-12-29T12:26:56;100575.84;;;0.98;38.52
65013;BME280;51715;39.432;-77.518;2022-12-29T12:29:33;100570.99;;;0.97;38.57
65013;BME280;51715;39.432;-77.518;2022-12-29T12:32:10;100572.67;;;0.73;38.55
65013;BME280;51715;39.432;-77.518;2022-12-29T12:34:42;100570.86;;;0.97;38.16
65013;BME280;51715;39.432;-77.518;2022-12-29T12:37:25;100572.84;;;0.88;38.17
65013;BME280;51715;39.432;-77.518;2022-12-29T12:40:15;100573.07;;;0.58;38.99
65013;BME280;51715;39.432;-77.518;2022-12-29T12:42:55;100576.68;;;0.82;39.30
65013;BME280;51715;39.432;-77.518;2022-12-29T12:45:36;100580.62;;;0.77;39.73
65013;BME280;51715;39.432;-77.518;2022-12-29T12:48:23;100584.24;;;0.59;39.73
65013;BME280;51715;39.432;-77.518;2022-12-29T12:50:59;100589.26;;;0.72;39.78
65013;BME280;51715;39.432;-77.518;2022-12-29T12:53:46;100589.80;;;0.76;39.60
65013;BME280;51715;39.432;-77.518;2022-12-29T12:56:34;100596.15;;;0.83;39.45
65013;BME280;51715;39.432;-77.518;2022-12-29T12:59:15;100598.87;;;0.73;39.30
65013;BME280;51715;39.432;-77.518;2022-12-29T13:01:53;100599.78;;;0.80;38.88
65013;BME280;51715;39.432;-77.518;2022-12-29T13:04:41;100606.00;;;0.56;39.23
65013;BME280;51715;39.432;-77.518;2022-12-29T13:07:23;100605.54;;;0.92;39.26